This is the latest recevied weather packets stored in our database for station/object LX1CU-13. If no packets are shown the sender has not sent any weather packets the latest 10 day(s).
| Time | Temp. | Humidity | Pressure | Rain* | Wind** | Luminosity | Snow |
|---|---|---|---|---|---|---|---|
| 1777553626 | 23.89° C | 22% | 1020.3 hPa | 0 mm | - | - | - |
| 1777548827 | 22.22° C | 24% | 1020.8 hPa | 0 mm | - | - | - |
| 1777548527 | 21.67° C | 25% | 1020.9 hPa | 0 mm | - | - | - |
| 1777548227 | 21.67° C | 25% | 1020.9 hPa | 0 mm | - | - | - |
| 1777547927 | 21.11° C | 25% | 1021 hPa | 0 mm | - | - | - |
| 1777547627 | 20.56° C | 25% | 1021 hPa | 0 mm | - | - | - |
| 1777547327 | 20.56° C | 25% | 1021.2 hPa | 0 mm | - | - | - |
| 1777547027 | 20.56° C | 25% | 1021.2 hPa | 0 mm | - | - | - |
| 1777546727 | 21.11° C | 25% | 1021.3 hPa | 0 mm | - | - | - |
| 1777546427 | 20.56° C | 25% | 1021.2 hPa | 0 mm | - | - | - |
| 1777546127 | 20.56° C | 25% | 1021.3 hPa | 0 mm | - | - | - |
| 1777545827 | 21.11° C | 25% | 1021.2 hPa | 0 mm | - | - | - |
| 1777545527 | 20.56° C | 26% | 1021.2 hPa | 0 mm | - | - | - |
| 1777545227 | 21.11° C | 25% | 1021.1 hPa | 0 mm | - | - | - |
| 1777544927 | 21.11° C | 26% | 1021.1 hPa | 0 mm | - | - | - |
| 1777544627 | 21.11° C | 26% | 1021.2 hPa | 0 mm | - | - | - |
| 1777544327 | 20.56° C | 26% | 1021.2 hPa | 0 mm | - | - | - |
| 1777544027 | 20.56° C | 26% | 1021.3 hPa | 0 mm | - | - | - |
| 1777543727 | 20° C | 26% | 1021.4 hPa | 0 mm | - | - | - |
| 1777543427 | 20.56° C | 26% | 1021.4 hPa | 0 mm | - | - | - |
| 1777543127 | 20.56° C | 26% | 1021.4 hPa | 0 mm | - | - | - |
| 1777542527 | 20.56° C | 26% | 1021.3 hPa | 0 mm | - | - | - |
| 1777541927 | 21.11° C | 26% | 1021.4 hPa | 0 mm | - | - | - |
| 1777541627 | 20.56° C | 27% | 1021.5 hPa | 0 mm | - | - | - |
| 1777541327 | 20.56° C | 27% | 1021.5 hPa | 0 mm | - | - | - |
* Rain latest hour (hover to see other rain measurements)
** Current wind speed in m/s (hover to see current wind gust speed)